createdAt,value
2019-03-13T00:01:39.039Z,997.12
2019-03-13T00:02:39.042Z,997.10
2019-03-13T00:04:31.940Z,997.17
2019-03-13T00:05:31.948Z,997.14
2019-03-13T00:07:24.853Z,997.14
2019-03-13T00:08:24.854Z,997.16
2019-03-13T00:10:18.271Z,997.25
2019-03-13T00:11:18.256Z,997.16
2019-03-13T00:13:11.156Z,997.27
2019-03-13T00:14:11.162Z,997.33
2019-03-13T00:16:04.070Z,997.24
2019-03-13T00:17:04.069Z,997.25
2019-03-13T00:18:56.964Z,997.25
2019-03-13T00:19:56.973Z,997.21
2019-03-13T00:21:49.880Z,997.25
2019-03-13T00:22:49.903Z,997.26
2019-03-13T00:24:42.777Z,997.27
2019-03-13T00:25:42.785Z,997.31
2019-03-13T00:27:35.692Z,997.37
2019-03-13T00:28:35.696Z,997.31
2019-03-13T00:30:28.599Z,997.32
2019-03-13T00:31:28.601Z,997.33
2019-03-13T00:33:21.505Z,997.35
2019-03-13T00:34:21.510Z,997.34
2019-03-13T00:36:14.414Z,997.28
2019-03-13T00:37:14.416Z,997.29
2019-03-13T00:39:07.317Z,997.34
2019-03-13T00:40:07.326Z,997.35
2019-03-13T00:42:00.234Z,997.34
2019-03-13T00:43:00.238Z,997.35
2019-03-13T00:44:53.132Z,997.35
2019-03-13T00:45:53.142Z,997.39
2019-03-13T00:47:46.046Z,997.37
2019-03-13T00:48:46.049Z,997.35
2019-03-13T00:50:38.953Z,997.39
2019-03-13T00:51:38.956Z,997.39
2019-03-13T00:53:31.853Z,997.35
2019-03-13T00:54:31.865Z,997.37
2019-03-13T00:56:24.768Z,997.36
2019-03-13T00:57:24.769Z,997.35
2019-03-13T00:59:17.665Z,997.32
2019-03-13T01:00:17.677Z,997.31
2019-03-13T01:02:11.078Z,997.35
2019-03-13T01:03:11.081Z,997.32
2019-03-13T01:05:03.976Z,997.30
2019-03-13T01:06:03.985Z,997.39
2019-03-13T01:07:56.890Z,997.35
2019-03-13T01:08:56.891Z,997.40
2019-03-13T01:10:49.795Z,997.38
2019-03-13T01:11:49.800Z,997.47
2019-03-13T01:13:42.698Z,997.40
2019-03-13T01:14:42.708Z,997.46
2019-03-13T01:16:35.609Z,997.46
2019-03-13T01:17:38.691Z,997.49
2019-03-13T01:19:28.510Z,997.50
2019-03-13T01:20:28.520Z,997.55
2019-03-13T01:22:21.428Z,997.51
2019-03-13T01:23:21.430Z,997.56
2019-03-13T01:25:14.822Z,997.52
2019-03-13T01:26:14.833Z,997.42
2019-03-13T01:28:07.738Z,997.45
2019-03-13T01:29:07.740Z,997.40
2019-03-13T01:31:00.646Z,997.43
2019-03-13T01:32:00.649Z,997.43
2019-03-13T01:33:53.544Z,997.40
2019-03-13T01:34:53.554Z,997.35
2019-03-13T01:36:46.477Z,997.37
2019-03-13T01:37:46.464Z,997.37
2019-03-13T01:39:39.359Z,997.38
2019-03-13T01:40:39.372Z,997.35
2019-03-13T01:42:32.273Z,997.42
2019-03-13T01:43:32.276Z,997.45
2019-03-13T01:45:25.174Z,997.42
2019-03-13T01:46:25.183Z,997.41
2019-03-13T01:48:18.088Z,997.38
2019-03-13T01:49:18.091Z,997.35
2019-03-13T01:51:11.007Z,997.37
2019-03-13T01:52:10.998Z,997.42
2019-03-13T01:54:03.895Z,997.44
2019-03-13T01:55:03.905Z,997.45
2019-03-13T01:56:56.811Z,997.39
2019-03-13T01:57:56.813Z,997.32
2019-03-13T01:59:49.711Z,997.41
2019-03-13T02:00:49.721Z,997.39
2019-03-13T02:02:42.625Z,997.41
2019-03-13T02:03:42.628Z,997.36
2019-03-13T02:05:35.535Z,997.32
2019-03-13T02:06:35.535Z,997.33
2019-03-13T02:08:28.442Z,997.27
2019-03-13T02:09:28.444Z,997.27
2019-03-13T02:11:21.348Z,997.22
2019-03-13T02:12:21.350Z,997.29
2019-03-13T02:14:14.338Z,997.27
2019-03-13T02:15:14.263Z,997.17
2019-03-13T02:17:07.160Z,997.13
2019-03-13T02:18:07.164Z,997.17
2019-03-13T02:20:00.060Z,997.11
2019-03-13T02:21:00.068Z,997.15
2019-03-13T02:22:52.973Z,997.04
2019-03-13T02:23:52.975Z,997.05
2019-03-13T02:25:45.873Z,997.09
2019-03-13T02:26:45.884Z,997.12
2019-03-13T02:28:38.787Z,997.10
2019-03-13T02:29:38.788Z,997.04
2019-03-13T02:31:31.695Z,997.04
2019-03-13T02:32:31.694Z,997.05
2019-03-13T02:34:24.593Z,997.09
2019-03-13T02:35:24.599Z,997.11
2019-03-13T02:37:17.506Z,997.01
2019-03-13T02:38:17.510Z,997.07
2019-03-13T02:40:10.410Z,997.02
2019-03-13T02:41:10.417Z,997.03
2019-03-13T02:43:03.376Z,996.90
2019-03-13T02:44:03.332Z,996.91
2019-03-13T02:45:56.221Z,996.93
2019-03-13T02:46:56.228Z,996.96
2019-03-13T02:48:49.132Z,997.04
2019-03-13T02:49:49.133Z,997.03
2019-03-13T02:51:42.037Z,997.08
2019-03-13T02:52:42.041Z,997.12
2019-03-13T02:54:34.937Z,997.04
2019-03-13T02:55:34.946Z,997.02
2019-03-13T02:57:27.855Z,997.03
2019-03-13T02:58:27.853Z,997.02
2019-03-13T03:00:20.754Z,997.01
2019-03-13T03:01:20.761Z,997.03
2019-03-13T03:03:13.702Z,996.97
2019-03-13T03:04:13.666Z,997.00
2019-03-13T03:06:06.565Z,996.99
2019-03-13T03:07:06.572Z,996.99
2019-03-13T03:08:59.476Z,996.93
2019-03-13T03:09:59.477Z,996.91
2019-03-13T03:11:52.381Z,996.82
2019-03-13T03:12:52.431Z,996.80
2019-03-13T03:14:46.272Z,996.86
2019-03-13T03:15:46.284Z,996.92
2019-03-13T03:17:39.190Z,996.93
2019-03-13T03:18:39.192Z,996.92
2019-03-13T03:20:32.093Z,996.88
2019-03-13T03:21:32.101Z,996.86
2019-03-13T03:23:25.009Z,996.89
2019-03-13T03:24:25.010Z,996.90
2019-03-13T03:26:17.911Z,996.89
2019-03-13T03:27:17.921Z,996.97
2019-03-13T03:29:10.824Z,996.99
2019-03-13T03:30:10.832Z,996.96
2019-03-13T03:32:03.733Z,996.96
2019-03-13T03:33:03.784Z,996.96
2019-03-13T03:34:56.632Z,996.94
2019-03-13T03:35:56.641Z,996.98
2019-03-13T03:37:49.546Z,996.93
2019-03-13T03:38:49.548Z,996.93
2019-03-13T03:40:42.444Z,996.94
2019-03-13T03:41:42.455Z,996.97
2019-03-13T03:43:40.716Z,997.01
2019-03-13T03:44:35.856Z,996.96
2019-03-13T03:46:29.754Z,996.95
2019-03-13T03:47:29.798Z,996.95
2019-03-13T03:49:22.662Z,996.94
2019-03-13T03:50:22.666Z,996.94
2019-03-13T03:52:16.069Z,996.90
2019-03-13T03:53:16.069Z,996.93
2019-03-13T03:55:08.967Z,996.91
2019-03-13T03:56:08.976Z,996.94
2019-03-13T03:58:02.376Z,997.00
2019-03-13T03:59:02.379Z,997.05
2019-03-13T04:00:55.393Z,997.03
2019-03-13T04:01:55.288Z,997.03
2019-03-13T04:03:48.196Z,996.98
2019-03-13T04:04:48.195Z,997.03
2019-03-13T04:06:41.097Z,997.01
2019-03-13T04:07:41.104Z,996.97
2019-03-13T04:09:34.006Z,996.96
2019-03-13T04:10:34.014Z,996.91
2019-03-13T04:12:26.915Z,996.97
2019-03-13T04:13:26.918Z,996.97
2019-03-13T04:15:19.823Z,997.07
2019-03-13T04:16:19.824Z,997.04
2019-03-13T04:18:12.728Z,996.93
2019-03-13T04:19:12.731Z,996.94
2019-03-13T04:21:05.635Z,996.95
2019-03-13T04:22:05.650Z,996.96
2019-03-13T04:23:58.558Z,996.96
2019-03-13T04:24:58.557Z,997.01
2019-03-13T04:26:51.455Z,996.95
2019-03-13T04:27:51.466Z,997.00
2019-03-13T04:29:44.863Z,997.04
2019-03-13T04:30:44.873Z,996.98
2019-03-13T04:32:37.772Z,996.93
2019-03-13T04:33:37.776Z,997.03
2019-03-13T04:35:30.679Z,997.01
2019-03-13T04:36:30.685Z,997.05
2019-03-13T04:38:23.598Z,997.00
2019-03-13T04:39:23.595Z,997.04
2019-03-13T04:41:16.492Z,997.04
2019-03-13T04:42:16.501Z,996.97
2019-03-13T04:44:09.410Z,996.93
2019-03-13T04:45:09.410Z,996.93
2019-03-13T04:47:02.309Z,996.96
2019-03-13T04:48:02.319Z,996.90
2019-03-13T04:49:55.223Z,996.85
2019-03-13T04:50:55.226Z,996.87
2019-03-13T04:52:48.135Z,996.86
2019-03-13T04:53:48.133Z,996.89
2019-03-13T04:55:41.525Z,996.84
2019-03-13T04:56:41.536Z,996.78
2019-03-13T04:58:34.440Z,996.80
2019-03-13T04:59:34.442Z,996.76
2019-03-13T05:01:27.344Z,996.77
2019-03-13T05:02:27.351Z,996.75
2019-03-13T05:04:20.255Z,996.75
2019-03-13T05:05:20.260Z,996.76
2019-03-13T05:07:13.157Z,996.68
2019-03-13T05:08:13.171Z,996.82
2019-03-13T05:10:06.081Z,996.76
2019-03-13T05:11:06.081Z,996.76
2019-03-13T05:12:59.113Z,996.63
2019-03-13T05:13:58.982Z,996.73
2019-03-13T05:15:52.373Z,996.69
2019-03-13T05:16:52.384Z,996.70
2019-03-13T05:18:45.287Z,996.71
2019-03-13T05:19:45.291Z,996.72
2019-03-13T05:21:38.187Z,996.75
2019-03-13T05:22:38.201Z,996.75
2019-03-13T05:24:31.596Z,996.70
2019-03-13T05:25:31.600Z,996.68
2019-03-13T05:27:24.508Z,996.67
2019-03-13T05:28:24.517Z,996.63
2019-03-13T05:30:17.916Z,996.67
2019-03-13T05:31:17.927Z,996.61
2019-03-13T05:33:10.827Z,996.61
2019-03-13T05:34:10.828Z,996.69
2019-03-13T05:36:03.730Z,996.66
2019-03-13T05:37:03.742Z,996.60
2019-03-13T05:38:56.649Z,996.66
2019-03-13T05:39:56.715Z,996.63
2019-03-13T05:41:49.547Z,996.67
2019-03-13T05:42:49.606Z,996.68
2019-03-13T05:44:42.463Z,996.58
2019-03-13T05:45:42.466Z,996.62
2019-03-13T05:47:35.363Z,996.68
2019-03-13T05:48:35.378Z,996.64
2019-03-13T05:50:31.332Z,996.58
2019-03-13T05:51:28.282Z,996.66
2019-03-13T05:53:21.199Z,996.58
2019-03-13T05:54:21.191Z,996.56
2019-03-13T05:56:14.100Z,996.52
2019-03-13T05:57:14.098Z,996.57
2019-03-13T05:59:07.004Z,996.67
2019-03-13T06:00:07.008Z,996.67
2019-03-13T06:01:59.905Z,996.58
2019-03-13T06:02:59.917Z,996.61
2019-03-13T06:04:52.821Z,996.65
2019-03-13T06:05:52.824Z,996.55
2019-03-13T06:07:46.215Z,996.59
2019-03-13T06:08:46.228Z,996.67
2019-03-13T06:10:39.136Z,996.59
2019-03-13T06:11:39.138Z,996.59
2019-03-13T06:13:32.047Z,996.57
2019-03-13T06:14:32.048Z,996.57
2019-03-13T06:16:24.951Z,996.59
2019-03-13T06:17:24.959Z,996.70
2019-03-13T06:19:17.882Z,996.53
2019-03-13T06:20:17.870Z,996.57
2019-03-13T06:22:10.762Z,996.56
2019-03-13T06:23:10.772Z,996.64
2019-03-13T06:25:03.686Z,996.63
2019-03-13T06:26:03.682Z,996.60
2019-03-13T06:27:56.580Z,996.50
2019-03-13T06:28:56.590Z,996.62
2019-03-13T06:30:49.498Z,996.59
2019-03-13T06:31:49.597Z,996.63
2019-03-13T06:33:42.412Z,996.59
2019-03-13T06:34:42.413Z,996.63
2019-03-13T06:36:35.806Z,996.59
2019-03-13T06:37:35.814Z,996.60
2019-03-13T06:39:31.826Z,996.62
2019-03-13T06:40:28.731Z,996.67
2019-03-13T06:42:21.621Z,996.64
2019-03-13T06:43:21.631Z,996.58
2019-03-13T06:45:14.539Z,996.65
2019-03-13T06:46:14.540Z,996.61
2019-03-13T06:48:08.888Z,996.62
2019-03-13T06:49:08.898Z,996.60
2019-03-13T06:51:01.806Z,996.66
2019-03-13T06:52:01.806Z,996.59
2019-03-13T06:53:55.204Z,996.63
2019-03-13T06:54:55.210Z,996.61
2019-03-13T06:56:48.108Z,996.56
2019-03-13T06:57:48.118Z,996.61
2019-03-13T06:59:41.022Z,996.54
2019-03-13T07:00:41.027Z,996.52
2019-03-13T07:02:33.922Z,996.57
2019-03-13T07:03:33.932Z,996.56
2019-03-13T07:05:26.836Z,996.48
2019-03-13T07:06:26.838Z,996.58
2019-03-13T07:08:19.739Z,996.56
2019-03-13T07:09:19.748Z,996.41
2019-03-13T07:11:12.656Z,996.39
2019-03-13T07:12:12.659Z,996.39
2019-03-13T07:14:05.566Z,996.39
2019-03-13T07:15:05.571Z,996.42
2019-03-13T07:16:58.466Z,996.42
2019-03-13T07:17:58.477Z,996.41
2019-03-13T07:19:51.386Z,996.50
2019-03-13T07:20:51.391Z,996.30
2019-03-13T07:22:44.288Z,996.40
2019-03-13T07:23:44.298Z,996.36
2019-03-13T07:25:37.201Z,996.40
2019-03-13T07:26:37.205Z,996.39
2019-03-13T07:28:30.104Z,996.46
2019-03-13T07:29:30.120Z,996.46
2019-03-13T07:31:23.051Z,996.59
2019-03-13T07:32:23.022Z,996.49
2019-03-13T07:34:15.927Z,996.47
2019-03-13T07:35:15.930Z,996.44
2019-03-13T07:37:08.829Z,996.54
2019-03-13T07:38:08.838Z,996.59
2019-03-13T07:40:01.748Z,996.67
2019-03-13T07:41:01.749Z,996.57
2019-03-13T07:42:54.653Z,996.59
2019-03-13T07:43:54.662Z,996.60
2019-03-13T07:45:47.569Z,996.62
2019-03-13T07:46:47.574Z,996.56
2019-03-13T07:48:40.471Z,996.66
2019-03-13T07:49:40.482Z,996.62
2019-03-13T07:51:33.389Z,996.61
2019-03-13T07:52:33.394Z,996.55
2019-03-13T07:54:26.299Z,996.57
2019-03-13T07:55:26.371Z,996.65
2019-03-13T07:57:19.206Z,996.52
2019-03-13T07:58:19.215Z,996.57
2019-03-13T08:00:12.119Z,996.39
2019-03-13T08:01:12.123Z,996.40
2019-03-13T08:03:05.025Z,996.44
2019-03-13T08:04:05.660Z,996.40
2019-03-13T08:05:57.941Z,996.28
2019-03-13T08:06:57.943Z,996.48
2019-03-13T08:08:50.847Z,996.35
2019-03-13T08:09:50.855Z,996.36
2019-03-13T08:11:44.383Z,996.25
2019-03-13T08:12:43.769Z,996.22
2019-03-13T08:14:36.679Z,996.25
2019-03-13T08:15:36.682Z,996.29
2019-03-13T08:17:29.585Z,996.18
2019-03-13T08:18:29.597Z,996.24
2019-03-13T08:20:22.533Z,996.11
2019-03-13T08:21:22.509Z,996.10
2019-03-13T08:23:15.410Z,996.20
2019-03-13T08:24:15.421Z,996.13
2019-03-13T08:26:08.329Z,996.10
2019-03-13T08:27:08.331Z,996.11
2019-03-13T08:29:01.237Z,996.01
2019-03-13T08:30:01.244Z,996.13
2019-03-13T08:31:54.156Z,996.13
2019-03-13T08:32:54.162Z,996.02
2019-03-13T08:34:47.070Z,996.09
2019-03-13T08:35:47.073Z,996.12
2019-03-13T08:37:41.951Z,995.99
2019-03-13T08:38:39.990Z,996.10
2019-03-13T08:40:32.895Z,996.17
2019-03-13T08:41:32.940Z,996.11
2019-03-13T08:43:25.802Z,996.08
2019-03-13T08:44:25.811Z,996.08
2019-03-13T08:46:18.730Z,996.05
2019-03-13T08:47:18.725Z,996.03
2019-03-13T08:49:11.626Z,996.05
2019-03-13T08:50:11.637Z,995.96
2019-03-13T08:52:04.550Z,995.93
2019-03-13T08:53:04.553Z,995.94
2019-03-13T08:54:57.460Z,995.99
2019-03-13T08:55:57.463Z,995.89
2019-03-13T08:57:50.365Z,995.92
2019-03-13T08:58:50.375Z,995.95
2019-03-13T09:00:43.287Z,996.07
2019-03-13T09:01:43.291Z,995.98
2019-03-13T09:03:36.211Z,995.93
2019-03-13T09:04:36.206Z,995.95
2019-03-13T09:06:29.112Z,995.84
2019-03-13T09:07:29.116Z,995.88
2019-03-13T09:09:22.017Z,995.90
2019-03-13T09:10:22.764Z,995.91
2019-03-13T09:12:14.942Z,995.91
2019-03-13T09:13:14.942Z,995.86
2019-03-13T09:15:08.626Z,995.95
2019-03-13T09:16:08.631Z,995.91
2019-03-13T09:18:01.537Z,995.94
2019-03-13T09:19:01.545Z,995.99
2019-03-13T09:20:54.452Z,995.93
2019-03-13T09:21:54.457Z,995.92
2019-03-13T09:23:47.358Z,995.85
2019-03-13T09:24:47.371Z,995.86
2019-03-13T09:26:40.280Z,995.92
2019-03-13T09:27:40.284Z,995.87
2019-03-13T09:29:33.225Z,995.87
2019-03-13T09:30:33.197Z,995.86
2019-03-13T09:32:26.109Z,995.81
2019-03-13T09:33:26.114Z,995.78
2019-03-13T09:35:19.019Z,995.83
2019-03-13T09:36:19.023Z,995.81
2019-03-13T09:38:11.924Z,995.85
2019-03-13T09:39:11.936Z,995.79
2019-03-13T09:41:04.841Z,995.67
2019-03-13T09:42:04.845Z,995.84
2019-03-13T09:43:59.911Z,995.81
2019-03-13T09:44:57.756Z,995.84
2019-03-13T09:46:50.666Z,995.79
2019-03-13T09:47:50.669Z,995.78
2019-03-13T09:49:43.571Z,995.75
2019-03-13T09:50:43.579Z,995.73
2019-03-13T09:52:36.487Z,995.88
2019-03-13T09:53:36.491Z,995.75
2019-03-13T09:55:29.543Z,995.69
2019-03-13T09:56:29.547Z,995.76
2019-03-13T09:58:22.445Z,995.73
2019-03-13T09:59:22.457Z,995.76
2019-03-13T10:01:15.366Z,995.69
2019-03-13T10:02:15.370Z,995.71
2019-03-13T10:04:08.281Z,995.80
2019-03-13T10:05:08.281Z,995.72
2019-03-13T10:07:01.188Z,995.66
2019-03-13T10:08:01.193Z,995.54
2019-03-13T10:09:54.093Z,995.74
2019-03-13T10:10:54.102Z,995.54
2019-03-13T10:12:47.008Z,995.66
2019-03-13T10:13:47.013Z,995.53
2019-03-13T10:15:39.918Z,995.64
2019-03-13T10:16:39.930Z,995.60
2019-03-13T10:18:32.835Z,995.53
2019-03-13T10:19:32.835Z,995.62
2019-03-13T10:21:25.751Z,995.65
2019-03-13T10:22:25.798Z,995.60
2019-03-13T10:24:18.648Z,995.62
2019-03-13T10:25:18.659Z,995.62
2019-03-13T10:27:11.568Z,995.51
2019-03-13T10:28:11.572Z,995.62
2019-03-13T10:30:04.473Z,995.67
2019-03-13T10:31:04.484Z,995.56
2019-03-13T10:32:57.392Z,995.66
2019-03-13T10:33:57.398Z,995.65
2019-03-13T10:35:50.309Z,995.63
2019-03-13T10:36:50.822Z,995.74
2019-03-13T10:38:43.219Z,995.70
2019-03-13T10:39:43.228Z,995.80
2019-03-13T10:41:36.631Z,995.70
2019-03-13T10:42:36.636Z,995.66
2019-03-13T10:44:29.539Z,995.71
2019-03-13T10:45:29.549Z,995.76
2019-03-13T10:47:22.457Z,995.73
2019-03-13T10:48:22.464Z,995.69
2019-03-13T10:50:15.363Z,995.67
2019-03-13T10:51:15.393Z,995.67
2019-03-13T10:53:08.282Z,995.70
2019-03-13T10:54:08.290Z,995.62
2019-03-13T10:56:01.197Z,995.76
2019-03-13T10:57:01.200Z,995.73
2019-03-13T10:58:54.105Z,995.75
2019-03-13T10:59:54.116Z,995.66
2019-03-13T11:01:47.024Z,995.62
2019-03-13T11:02:47.028Z,995.69
2019-03-13T11:04:39.929Z,995.84
2019-03-13T11:05:39.939Z,995.65
2019-03-13T11:07:32.847Z,995.72
2019-03-13T11:08:32.851Z,995.69
2019-03-13T11:10:25.753Z,995.59
2019-03-13T11:11:25.762Z,995.50
2019-03-13T11:13:18.669Z,995.56
2019-03-13T11:14:18.677Z,995.54
2019-03-13T11:16:11.578Z,995.54
2019-03-13T11:17:11.582Z,995.55
2019-03-13T11:19:04.482Z,995.48
2019-03-13T11:20:04.495Z,995.46
2019-03-13T11:21:57.398Z,995.50
2019-03-13T11:22:57.403Z,995.59
2019-03-13T11:24:50.304Z,995.62
2019-03-13T11:25:50.314Z,995.66
2019-03-13T11:27:43.229Z,995.62
2019-03-13T11:28:43.234Z,995.57
2019-03-13T11:30:36.136Z,995.58
2019-03-13T11:31:36.144Z,995.61
2019-03-13T11:33:29.057Z,995.57
2019-03-13T11:34:29.056Z,995.61
2019-03-13T11:36:21.966Z,995.55
2019-03-13T11:37:21.967Z,995.57
2019-03-13T11:39:15.363Z,995.59
2019-03-13T11:40:15.373Z,995.53
2019-03-13T11:42:08.280Z,995.57
2019-03-13T11:43:08.284Z,995.61
2019-03-13T11:45:01.185Z,995.49
2019-03-13T11:46:01.195Z,995.55
2019-03-13T11:47:54.105Z,995.50
2019-03-13T11:48:54.110Z,995.47
2019-03-13T11:50:47.012Z,995.43
2019-03-13T11:51:47.021Z,995.45
2019-03-13T11:53:39.936Z,995.42
2019-03-13T11:54:39.934Z,995.39
2019-03-13T11:56:32.845Z,995.39
2019-03-13T11:57:32.849Z,995.40
2019-03-13T11:59:25.751Z,995.38
2019-03-13T12:00:25.761Z,995.40
2019-03-13T12:02:18.668Z,995.44
2019-03-13T12:03:18.672Z,995.20
2019-03-13T12:05:11.574Z,995.37
2019-03-13T12:06:11.581Z,995.26
2019-03-13T12:08:04.486Z,995.36
2019-03-13T12:09:04.490Z,995.34
2019-03-13T12:10:57.429Z,995.27
2019-03-13T12:11:57.479Z,995.26
2019-03-13T12:13:50.349Z,995.20
2019-03-13T12:14:50.357Z,995.17
2019-03-13T12:16:43.264Z,995.19
2019-03-13T12:17:43.268Z,995.20
2019-03-13T12:19:36.197Z,995.13
2019-03-13T12:20:36.180Z,994.94
2019-03-13T12:22:29.087Z,995.01
2019-03-13T12:23:29.090Z,995.04
2019-03-13T12:25:21.991Z,994.98
2019-03-13T12:26:22.005Z,994.75
2019-03-13T12:28:14.913Z,994.88
2019-03-13T12:29:14.945Z,994.83
2019-03-13T12:31:07.818Z,994.82
2019-03-13T12:32:07.831Z,994.78
2019-03-13T12:34:00.741Z,994.72
2019-03-13T12:35:00.757Z,994.72
2019-03-13T12:36:53.652Z,994.72
2019-03-13T12:37:53.656Z,994.73
2019-03-13T12:39:46.557Z,994.64
2019-03-13T12:40:46.570Z,994.62
2019-03-13T12:42:39.484Z,994.56
2019-03-13T12:43:39.492Z,994.56
2019-03-13T12:45:32.537Z,994.54
2019-03-13T12:46:32.549Z,994.53
2019-03-13T12:48:25.483Z,994.61
2019-03-13T12:49:25.490Z,994.60
2019-03-13T12:51:18.573Z,994.60
2019-03-13T12:52:18.589Z,994.56
2019-03-13T12:54:11.503Z,994.62
2019-03-13T12:55:11.556Z,994.46
2019-03-13T12:57:04.508Z,994.67
2019-03-13T12:58:04.415Z,994.70
2019-03-13T12:59:57.315Z,994.82
2019-03-13T13:00:57.327Z,994.70
2019-03-13T13:02:50.238Z,994.67
2019-03-13T13:03:50.241Z,994.72
2019-03-13T13:05:43.140Z,994.59
2019-03-13T13:06:43.149Z,994.60
2019-03-13T13:08:36.060Z,994.66
2019-03-13T13:09:36.066Z,994.62
2019-03-13T13:11:28.962Z,994.55
2019-03-13T13:12:28.976Z,994.54
2019-03-13T13:14:21.884Z,994.58
2019-03-13T13:15:21.885Z,994.59
2019-03-13T13:17:14.792Z,994.54
2019-03-13T13:18:14.796Z,994.49
2019-03-13T13:20:07.699Z,994.43
2019-03-13T13:21:07.867Z,994.48
2019-03-13T13:23:00.630Z,994.43
2019-03-13T13:24:00.628Z,994.54
2019-03-13T13:25:53.737Z,994.53
2019-03-13T13:26:53.533Z,994.54
2019-03-13T13:28:46.435Z,994.43
2019-03-13T13:29:46.443Z,994.42
2019-03-13T13:31:39.350Z,994.45
2019-03-13T13:32:39.357Z,994.41
2019-03-13T13:34:32.354Z,994.53
2019-03-13T13:35:32.360Z,994.50
2019-03-13T13:37:25.280Z,994.55
2019-03-13T13:38:25.274Z,994.52
2019-03-13T13:40:18.170Z,994.57
2019-03-13T13:41:18.184Z,994.43
2019-03-13T13:43:11.090Z,994.57
2019-03-13T13:44:11.094Z,994.46
2019-03-13T13:46:03.998Z,994.52
2019-03-13T13:47:04.008Z,994.52
2019-03-13T13:48:56.918Z,994.50
2019-03-13T13:49:59.949Z,994.54
2019-03-13T13:51:49.815Z,994.49
2019-03-13T13:52:49.830Z,994.50
2019-03-13T13:54:42.733Z,994.48
2019-03-13T13:55:42.737Z,994.53
2019-03-13T13:57:35.659Z,994.50
2019-03-13T13:58:35.650Z,994.48
2019-03-13T14:00:28.549Z,994.46
2019-03-13T14:01:28.561Z,994.47
2019-03-13T14:03:21.466Z,994.48
2019-03-13T14:04:21.471Z,994.37
2019-03-13T14:06:14.372Z,994.43
2019-03-13T14:07:14.379Z,994.41
2019-03-13T14:09:07.286Z,994.46
2019-03-13T14:10:07.285Z,994.47
2019-03-13T14:12:00.329Z,994.47
2019-03-13T14:13:00.197Z,994.45
2019-03-13T14:14:53.103Z,994.55
2019-03-13T14:15:53.110Z,994.46
2019-03-13T14:17:46.011Z,994.50
2019-03-13T14:18:46.021Z,994.48
2019-03-13T14:20:38.926Z,994.44
2019-03-13T14:21:38.933Z,994.53
2019-03-13T14:23:31.838Z,994.50
2019-03-13T14:24:31.841Z,994.57
2019-03-13T14:26:24.740Z,994.66
2019-03-13T14:27:24.751Z,994.65
2019-03-13T14:29:17.659Z,994.62
2019-03-13T14:30:17.663Z,994.62
2019-03-13T14:32:10.565Z,994.62
2019-03-13T14:33:10.576Z,994.60
2019-03-13T14:35:03.485Z,994.61
2019-03-13T14:36:03.486Z,994.60
2019-03-13T14:37:56.391Z,994.61
2019-03-13T14:38:56.400Z,994.63
2019-03-13T14:40:49.313Z,994.65
2019-03-13T14:41:49.312Z,994.74
2019-03-13T14:43:42.221Z,994.67
2019-03-13T14:44:42.226Z,994.70
2019-03-13T14:46:35.134Z,994.81
2019-03-13T14:47:35.146Z,994.77
2019-03-13T14:49:28.054Z,994.87
2019-03-13T14:50:28.060Z,994.81
2019-03-13T14:52:20.961Z,994.87
2019-03-13T14:53:21.027Z,994.88
2019-03-13T14:55:13.885Z,994.85
2019-03-13T14:56:13.886Z,994.86
2019-03-13T14:58:06.791Z,994.89
2019-03-13T14:59:06.797Z,994.87
2019-03-13T15:00:59.702Z,994.88
2019-03-13T15:01:59.704Z,994.90
2019-03-13T15:03:52.815Z,994.80
2019-03-13T15:04:52.614Z,994.82
2019-03-13T15:06:45.516Z,994.77
2019-03-13T15:07:45.530Z,994.55
2019-03-13T15:09:39.453Z,994.56
2019-03-13T15:10:38.436Z,994.61
2019-03-13T15:12:31.351Z,994.67
2019-03-13T15:13:31.360Z,994.67
2019-03-13T15:15:24.293Z,994.62
2019-03-13T15:16:24.302Z,994.66
2019-03-13T15:18:17.171Z,994.63
2019-03-13T15:19:17.181Z,994.56
2019-03-13T15:21:10.095Z,994.68
2019-03-13T15:22:10.099Z,994.68
2019-03-13T15:24:03.001Z,994.54
2019-03-13T15:25:03.008Z,994.53
2019-03-13T15:26:56.000Z,994.65
2019-03-13T15:27:55.933Z,994.61
2019-03-13T15:29:48.830Z,994.65
2019-03-13T15:30:48.835Z,994.67
2019-03-13T15:32:41.736Z,994.66
2019-03-13T15:33:41.746Z,994.63
2019-03-13T15:35:34.657Z,994.61
2019-03-13T15:36:34.670Z,994.59
2019-03-13T15:38:27.562Z,994.51
2019-03-13T15:39:27.572Z,994.69
2019-03-13T15:41:20.485Z,994.65
2019-03-13T15:42:20.490Z,994.69
2019-03-13T15:44:13.396Z,994.71
2019-03-13T15:45:13.400Z,994.61
2019-03-13T15:47:06.317Z,994.74
2019-03-13T15:48:06.333Z,994.74
2019-03-13T15:49:59.240Z,994.73
2019-03-13T15:50:59.241Z,994.70
2019-03-13T15:52:52.140Z,994.77
2019-03-13T15:53:52.152Z,994.74
2019-03-13T15:55:45.059Z,994.68
2019-03-13T15:56:45.068Z,994.68
2019-03-13T15:58:37.962Z,994.72
2019-03-13T15:59:37.974Z,994.77
2019-03-13T16:01:30.889Z,994.74
2019-03-13T16:02:30.886Z,994.73
2019-03-13T16:04:23.796Z,994.82
2019-03-13T16:05:23.800Z,994.80
2019-03-13T16:07:16.702Z,994.86
2019-03-13T16:08:16.709Z,994.89
2019-03-13T16:10:09.620Z,994.91
2019-03-13T16:11:09.653Z,994.88
2019-03-13T16:13:02.523Z,994.91
2019-03-13T16:14:02.548Z,994.86
2019-03-13T16:15:55.441Z,994.83
2019-03-13T16:16:55.445Z,994.92
2019-03-13T16:18:48.343Z,994.94
2019-03-13T16:19:48.354Z,994.91
2019-03-13T16:21:41.261Z,994.86
2019-03-13T16:22:41.264Z,994.86
2019-03-13T16:24:34.179Z,994.89
2019-03-13T16:25:34.180Z,994.94
2019-03-13T16:27:27.079Z,995.10
2019-03-13T16:28:27.090Z,995.13
2019-03-13T16:30:20.000Z,995.16
2019-03-13T16:31:20.003Z,995.14
2019-03-13T16:33:12.907Z,995.18
2019-03-13T16:34:12.916Z,995.21
2019-03-13T16:36:05.824Z,995.19
2019-03-13T16:37:05.833Z,995.12
2019-03-13T16:38:58.728Z,995.08
2019-03-13T16:39:58.740Z,995.02
2019-03-13T16:41:51.648Z,995.04
2019-03-13T16:42:51.650Z,994.99
2019-03-13T16:44:44.572Z,994.95
2019-03-13T16:45:44.557Z,994.96
2019-03-13T16:47:37.702Z,995.01
2019-03-13T16:48:37.664Z,994.97
2019-03-13T16:50:30.640Z,994.99
2019-03-13T16:51:30.584Z,994.96
2019-03-13T16:53:23.488Z,994.90
2019-03-13T16:54:23.510Z,994.94
2019-03-13T16:56:16.408Z,994.92
2019-03-13T16:57:16.432Z,994.90
2019-03-13T16:59:09.362Z,994.83
2019-03-13T17:00:09.317Z,994.93
2019-03-13T17:02:02.222Z,994.98
2019-03-13T17:03:02.227Z,994.94
2019-03-13T17:04:55.207Z,994.90
2019-03-13T17:05:55.214Z,994.84
2019-03-13T17:07:49.896Z,994.89
2019-03-13T17:08:48.120Z,994.79
2019-03-13T17:10:41.025Z,994.90
2019-03-13T17:11:41.024Z,994.91
2019-03-13T17:13:33.929Z,994.94
2019-03-13T17:14:33.939Z,995.04
2019-03-13T17:16:26.848Z,994.99
2019-03-13T17:17:26.850Z,995.01
2019-03-13T17:19:19.752Z,994.95
2019-03-13T17:20:19.785Z,995.03
2019-03-13T17:22:12.692Z,995.09
2019-03-13T17:23:12.684Z,995.16
2019-03-13T17:25:05.586Z,995.22
2019-03-13T17:26:05.588Z,995.22
2019-03-13T17:27:58.989Z,995.31
2019-03-13T17:28:58.999Z,995.35
2019-03-13T17:30:51.903Z,995.41
2019-03-13T17:31:51.908Z,995.46
2019-03-13T17:33:44.808Z,995.48
2019-03-13T17:34:44.818Z,995.46
2019-03-13T17:36:37.724Z,995.50
2019-03-13T17:37:37.725Z,995.43
2019-03-13T17:39:33.626Z,995.45
2019-03-13T17:40:30.634Z,995.47
2019-03-13T17:42:23.555Z,995.49
2019-03-13T17:43:23.546Z,995.41
2019-03-13T17:45:16.451Z,995.42
2019-03-13T17:46:16.458Z,995.40
2019-03-13T17:48:09.371Z,995.43
2019-03-13T17:49:09.370Z,995.40
2019-03-13T17:51:02.282Z,995.36
2019-03-13T17:52:02.285Z,995.35
2019-03-13T17:53:55.186Z,995.38
2019-03-13T17:54:55.196Z,995.38
2019-03-13T17:56:48.105Z,995.46
2019-03-13T17:57:48.107Z,995.41
2019-03-13T17:59:41.010Z,995.44